createdAt,value
2018-09-02T00:01:27.216Z,14.70
2018-09-02T00:03:55.352Z,14.70
2018-09-02T00:06:23.484Z,14.60
2018-09-02T00:08:51.625Z,14.60
2018-09-02T00:11:19.787Z,14.60
2018-09-02T00:13:47.898Z,14.60
2018-09-02T00:16:16.133Z,14.50
2018-09-02T00:18:44.256Z,14.50
2018-09-02T00:21:12.393Z,14.50
2018-09-02T00:23:40.520Z,14.50
2018-09-02T00:26:08.660Z,14.50
2018-09-02T00:28:36.796Z,14.50
2018-09-02T00:31:05.302Z,14.40
2018-09-02T00:33:33.414Z,14.40
2018-09-02T00:36:01.540Z,14.40
2018-09-02T00:38:29.681Z,14.40
2018-09-02T00:40:57.808Z,14.30
2018-09-02T00:43:25.945Z,14.30
2018-09-02T00:45:54.077Z,14.30
2018-09-02T00:48:22.248Z,14.30
2018-09-02T00:50:50.380Z,14.30
2018-09-02T00:53:18.515Z,14.30
2018-09-02T00:55:46.640Z,14.30
2018-09-02T00:58:14.780Z,14.30
2018-09-02T01:00:42.912Z,14.30
2018-09-02T01:03:11.049Z,14.30
2018-09-02T01:05:39.176Z,14.20
2018-09-02T01:08:07.312Z,14.20
2018-09-02T01:10:35.457Z,14.30
2018-09-02T01:13:03.615Z,14.30
2018-09-02T01:15:31.751Z,14.30
2018-09-02T01:17:59.887Z,14.20
2018-09-02T01:20:28.018Z,14.20
2018-09-02T01:22:56.200Z,14.20
2018-09-02T01:25:24.276Z,14.20
2018-09-02T01:27:52.420Z,14.10
2018-09-02T01:30:20.548Z,14.10
2018-09-02T01:32:48.692Z,14.10
2018-09-02T01:35:22.174Z,14.00
2018-09-02T01:37:50.312Z,14.00
2018-09-02T01:40:18.449Z,14.00
2018-09-02T01:42:46.588Z,14.00
2018-09-02T01:45:14.710Z,13.90
2018-09-02T01:47:42.842Z,14.00
2018-09-02T01:50:10.980Z,13.90
2018-09-02T01:52:39.120Z,13.90
2018-09-02T01:55:07.241Z,13.90
2018-09-02T01:57:35.413Z,13.90
2018-09-02T02:00:03.560Z,13.90
2018-09-02T02:02:31.709Z,13.90
2018-09-02T02:04:59.840Z,13.90
2018-09-02T02:07:27.972Z,13.90
2018-09-02T02:09:56.097Z,13.90
2018-09-02T02:12:24.240Z,13.80
2018-09-02T02:14:52.355Z,13.80
2018-09-02T02:17:20.498Z,13.80
2018-09-02T02:19:48.632Z,13.80
2018-09-02T02:22:16.768Z,13.80
2018-09-02T02:24:44.931Z,13.80
2018-09-02T02:27:13.071Z,13.70
2018-09-02T02:29:41.204Z,13.70
2018-09-02T02:32:09.344Z,13.70
2018-09-02T02:34:37.491Z,13.70
2018-09-02T02:37:05.629Z,13.70
2018-09-02T02:39:33.767Z,13.70
2018-09-02T02:42:01.903Z,13.70
2018-09-02T02:44:30.040Z,13.60
2018-09-02T02:46:58.176Z,13.60
2018-09-02T02:49:26.320Z,13.50
2018-09-02T02:51:54.456Z,13.60
2018-09-02T02:54:22.606Z,13.60
2018-09-02T02:56:50.733Z,13.50
2018-09-02T02:59:18.881Z,13.50
2018-09-02T03:01:47.022Z,13.60
2018-09-02T03:04:15.157Z,13.60
2018-09-02T03:06:43.396Z,13.60
2018-09-02T03:09:12.217Z,13.60
2018-09-02T03:11:40.578Z,13.60
2018-09-02T03:14:09.497Z,13.60
2018-09-02T03:16:37.642Z,13.60
2018-09-02T03:19:05.773Z,13.50
2018-09-02T03:21:34.009Z,13.50
2018-09-02T03:24:02.153Z,13.50
2018-09-02T03:26:30.288Z,13.50
2018-09-02T03:28:58.468Z,13.50
2018-09-02T03:31:26.596Z,13.40
2018-09-02T03:33:54.732Z,13.40
2018-09-02T03:36:22.877Z,13.30
2018-09-02T03:38:51.002Z,13.30
2018-09-02T03:41:19.137Z,13.30
2018-09-02T03:43:47.440Z,13.30
2018-09-02T03:46:15.572Z,13.30
2018-09-02T03:48:43.708Z,13.40
2018-09-02T03:51:11.845Z,13.30
2018-09-02T03:53:39.980Z,13.30
2018-09-02T03:56:08.121Z,13.30
2018-09-02T03:58:36.264Z,13.30
2018-09-02T04:01:04.394Z,13.30
2018-09-02T04:03:32.534Z,13.20
2018-09-02T04:06:00.665Z,13.30
2018-09-02T04:08:28.794Z,13.40
2018-09-02T04:10:56.942Z,13.30
2018-09-02T04:13:25.066Z,13.30
2018-09-02T04:15:53.208Z,13.30
2018-09-02T04:18:21.341Z,13.30
2018-09-02T04:20:49.484Z,13.20
2018-09-02T04:23:17.633Z,13.20
2018-09-02T04:25:45.770Z,13.20
2018-09-02T04:28:13.971Z,13.20
2018-09-02T04:30:42.106Z,13.20
2018-09-02T04:33:10.245Z,13.20
2018-09-02T04:35:38.375Z,13.20
2018-09-02T04:38:06.738Z,13.20
2018-09-02T04:40:34.885Z,13.20
2018-09-02T04:43:03.017Z,13.10
2018-09-02T04:45:31.142Z,13.10
2018-09-02T04:47:59.285Z,13.10
2018-09-02T04:50:27.424Z,13.10
2018-09-02T04:52:55.542Z,13.10
2018-09-02T04:55:23.689Z,13.00
2018-09-02T04:57:51.793Z,13.10
2018-09-02T05:00:20.480Z,13.10
2018-09-02T05:02:48.541Z,13.00
2018-09-02T05:05:16.647Z,13.00
2018-09-02T05:07:44.742Z,13.00
2018-09-02T05:10:12.859Z,13.00
2018-09-02T05:12:40.949Z,13.00
2018-09-02T05:15:09.076Z,13.10
2018-09-02T05:17:37.185Z,13.10
2018-09-02T05:20:05.561Z,13.20
2018-09-02T05:22:33.659Z,13.20
2018-09-02T05:25:01.776Z,13.30
2018-09-02T05:27:29.870Z,13.30
2018-09-02T05:29:57.976Z,13.30
2018-09-02T05:32:26.076Z,13.40
2018-09-02T05:34:54.189Z,13.30
2018-09-02T05:37:22.291Z,13.40
2018-09-02T05:39:50.407Z,13.40
2018-09-02T05:42:18.533Z,13.80
2018-09-02T05:44:46.645Z,13.70
2018-09-02T05:47:14.749Z,13.60
2018-09-02T05:49:42.860Z,13.70
2018-09-02T05:52:10.960Z,13.70
2018-09-02T05:54:39.065Z,13.80
2018-09-02T05:57:07.172Z,13.90
2018-09-02T05:59:35.310Z,14.10
2018-09-02T06:02:04.065Z,14.30
2018-09-02T06:04:32.227Z,14.60
2018-09-02T06:07:00.342Z,14.80
2018-09-02T06:09:28.510Z,15.00
2018-09-02T06:11:56.640Z,15.30
2018-09-02T06:14:24.789Z,15.50
2018-09-02T06:16:53.186Z,15.70
2018-09-02T06:19:21.326Z,15.90
2018-09-02T06:21:49.460Z,15.90
2018-09-02T06:24:17.589Z,16.00
2018-09-02T06:26:45.742Z,16.20
2018-09-02T06:29:13.881Z,16.30
2018-09-02T06:31:42.002Z,16.30
2018-09-02T06:34:10.127Z,16.30
2018-09-02T06:36:38.259Z,16.30
2018-09-02T06:39:08.704Z,16.40
2018-09-02T06:41:37.112Z,16.40
2018-09-02T06:44:05.244Z,16.50
2018-09-02T06:46:33.679Z,16.50
2018-09-02T06:49:01.808Z,16.60
2018-09-02T06:51:29.938Z,16.60
2018-09-02T06:53:58.104Z,16.60
2018-09-02T06:56:26.234Z,16.70
2018-09-02T06:58:54.368Z,16.70
2018-09-02T07:01:23.020Z,16.80
2018-09-02T07:03:51.300Z,16.90
2018-09-02T07:06:19.427Z,17.00
2018-09-02T07:08:47.542Z,17.10
2018-09-02T07:11:15.668Z,17.20
2018-09-02T07:13:43.796Z,17.40
2018-09-02T07:16:11.928Z,17.60
2018-09-02T07:18:40.060Z,17.70
2018-09-02T07:21:08.192Z,17.90
2018-09-02T07:23:36.309Z,18.10
2018-09-02T07:26:04.580Z,18.30
2018-09-02T07:28:32.957Z,18.60
2018-09-02T07:31:01.246Z,18.90
2018-09-02T07:33:29.392Z,19.10
2018-09-02T07:35:57.533Z,19.30
2018-09-02T07:38:25.657Z,19.60
2018-09-02T07:40:53.777Z,20.00
2018-09-02T07:43:21.911Z,20.20
2018-09-02T07:45:50.048Z,20.50
2018-09-02T07:48:18.162Z,20.70
2018-09-02T07:50:46.468Z,20.80
2018-09-02T07:53:14.589Z,20.80
2018-09-02T07:55:42.723Z,20.90
2018-09-02T07:58:10.861Z,21.00
2018-09-02T08:00:38.974Z,21.20
2018-09-02T08:03:07.097Z,21.40
2018-09-02T08:05:35.215Z,21.60
2018-09-02T08:08:03.337Z,21.50
2018-09-02T08:10:31.480Z,21.40
2018-09-02T08:12:59.623Z,21.50
2018-09-02T08:15:27.746Z,21.80
2018-09-02T08:17:55.893Z,21.90
2018-09-02T08:20:24.012Z,22.20
2018-09-02T08:22:52.144Z,22.40
2018-09-02T08:25:20.284Z,22.50
2018-09-02T08:27:49.564Z,22.60
2018-09-02T08:30:17.670Z,22.70
2018-09-02T08:32:45.786Z,22.80
2018-09-02T08:35:13.911Z,22.70
2018-09-02T08:37:42.048Z,22.80
2018-09-02T08:40:10.171Z,23.00
2018-09-02T08:42:38.300Z,23.00
2018-09-02T08:45:07.241Z,23.00
2018-09-02T08:47:35.408Z,23.20
2018-09-02T08:50:03.544Z,23.50
2018-09-02T08:52:31.672Z,23.50
2018-09-02T08:55:00.132Z,23.70
2018-09-02T08:57:28.264Z,23.70
2018-09-02T08:59:57.241Z,23.70
2018-09-02T09:02:25.344Z,23.60
2018-09-02T09:04:53.442Z,23.70
2018-09-02T09:07:21.552Z,23.70
2018-09-02T09:09:49.644Z,23.60
2018-09-02T09:12:17.749Z,23.50
2018-09-02T09:14:45.859Z,23.60
2018-09-02T09:17:14.033Z,23.70
2018-09-02T09:19:42.056Z,23.90
2018-09-02T09:22:10.179Z,24.00
2018-09-02T09:24:38.260Z,23.80
2018-09-02T09:27:06.360Z,23.90
2018-09-02T09:29:34.437Z,24.00
2018-09-02T09:32:02.745Z,23.60
2018-09-02T09:34:30.839Z,23.60
2018-09-02T09:36:58.930Z,23.70
2018-09-02T09:39:27.014Z,23.80
2018-09-02T09:41:55.116Z,23.70
2018-09-02T09:44:23.216Z,23.70
2018-09-02T09:46:51.331Z,23.60
2018-09-02T09:49:19.436Z,23.70
2018-09-02T09:51:47.543Z,23.40
2018-09-02T09:54:15.636Z,23.20
2018-09-02T09:56:43.813Z,23.20
2018-09-02T09:59:11.899Z,23.40
2018-09-02T10:01:40.000Z,23.40
2018-09-02T10:04:08.104Z,23.50
2018-09-02T10:06:36.212Z,23.30
2018-09-02T10:09:07.760Z,23.30
2018-09-02T10:11:35.928Z,23.30
2018-09-02T10:14:03.964Z,23.30
2018-09-02T10:16:32.060Z,23.40
2018-09-02T10:19:00.168Z,23.60
2018-09-02T10:21:28.264Z,23.60
2018-09-02T10:23:56.350Z,23.70
2018-09-02T10:26:24.445Z,23.80
2018-09-02T10:28:52.533Z,23.80
2018-09-02T10:31:20.619Z,23.70
2018-09-02T10:33:48.725Z,23.60
2018-09-02T10:36:16.850Z,23.50
2018-09-02T10:38:44.953Z,23.40
2018-09-02T10:41:13.176Z,23.40
2018-09-02T10:43:41.159Z,23.50
2018-09-02T10:46:09.246Z,23.70
2018-09-02T10:48:37.349Z,23.80
2018-09-02T10:51:05.458Z,23.60
2018-09-02T10:53:33.571Z,23.40
2018-09-02T10:56:01.681Z,23.30
2018-09-02T10:58:29.820Z,23.30
2018-09-02T11:00:57.943Z,23.20
2018-09-02T11:03:26.071Z,23.40
2018-09-02T11:05:54.186Z,23.50
2018-09-02T11:08:22.316Z,23.60
2018-09-02T11:10:50.462Z,23.60
2018-09-02T11:13:18.625Z,23.40
2018-09-02T11:15:46.735Z,23.40
2018-09-02T11:18:14.875Z,23.30
2018-09-02T11:20:42.988Z,23.10
2018-09-02T11:23:11.103Z,23.10
2018-09-02T11:25:39.252Z,23.20
2018-09-02T11:28:07.395Z,23.30
2018-09-02T11:30:35.523Z,23.50
2018-09-02T11:33:03.650Z,23.70
2018-09-02T11:35:31.798Z,23.80
2018-09-02T11:37:59.932Z,23.90
2018-09-02T11:40:28.051Z,24.00
2018-09-02T11:42:56.201Z,24.10
2018-09-02T11:45:24.376Z,24.30
2018-09-02T11:47:52.604Z,24.20
2018-09-02T11:50:20.713Z,24.10
2018-09-02T11:52:48.848Z,23.80
2018-09-02T11:55:16.972Z,23.70
2018-09-02T11:57:45.142Z,23.70
2018-09-02T12:00:13.306Z,23.70
2018-09-02T12:02:41.387Z,23.70
2018-09-02T12:05:09.475Z,23.70
2018-09-02T12:07:37.559Z,23.90
2018-09-02T12:10:05.654Z,24.00
2018-09-02T12:12:33.778Z,24.10
2018-09-02T12:15:01.864Z,24.20
2018-09-02T12:17:29.947Z,24.40
2018-09-02T12:19:58.031Z,24.60
2018-09-02T12:22:26.115Z,24.60
2018-09-02T12:24:54.229Z,24.70
2018-09-02T12:27:22.322Z,24.90
2018-09-02T12:29:50.398Z,25.00
2018-09-02T12:32:18.483Z,25.00
2018-09-02T12:34:46.591Z,24.80
2018-09-02T12:37:14.687Z,24.70
2018-09-02T12:39:42.789Z,24.70
2018-09-02T12:42:10.968Z,24.70
2018-09-02T12:44:39.072Z,24.70
2018-09-02T12:47:07.248Z,24.60
2018-09-02T12:49:35.329Z,24.20
2018-09-02T12:52:03.426Z,24.10
2018-09-02T12:54:31.503Z,23.90
2018-09-02T12:56:59.574Z,24.00
2018-09-02T12:59:27.688Z,24.10
2018-09-02T13:01:55.830Z,24.30
2018-09-02T13:04:23.908Z,24.20
2018-09-02T13:06:51.991Z,24.20
2018-09-02T13:09:20.093Z,24.20
2018-09-02T13:11:48.172Z,24.30
2018-09-02T13:14:16.364Z,24.30
2018-09-02T13:16:44.445Z,24.20
2018-09-02T13:19:12.528Z,24.30
2018-09-02T13:21:40.606Z,24.30
2018-09-02T13:24:08.708Z,24.20
2018-09-02T13:26:36.811Z,24.00
2018-09-02T13:29:05.391Z,24.00
2018-09-02T13:31:33.485Z,24.10
2018-09-02T13:34:01.648Z,24.20
2018-09-02T13:36:30.060Z,24.40
2018-09-02T13:38:58.226Z,24.50
2018-09-02T13:41:26.289Z,24.50
2018-09-02T13:43:54.416Z,24.60
2018-09-02T13:46:22.495Z,24.60
2018-09-02T13:48:50.590Z,24.60
2018-09-02T13:51:18.686Z,24.60
2018-09-02T13:53:46.807Z,24.60
2018-09-02T13:56:14.892Z,24.40
2018-09-02T13:58:42.997Z,24.30
2018-09-02T14:01:11.214Z,24.30
2018-09-02T14:03:39.235Z,24.20
2018-09-02T14:06:07.368Z,24.20
2018-09-02T14:08:35.679Z,24.20
2018-09-02T14:11:03.794Z,24.10
2018-09-02T14:13:31.919Z,24.10
2018-09-02T14:16:00.061Z,24.10
2018-09-02T14:18:28.188Z,24.10
2018-09-02T14:20:56.344Z,24.20
2018-09-02T14:23:24.468Z,24.20
2018-09-02T14:25:52.904Z,24.20
2018-09-02T14:28:21.061Z,24.10
2018-09-02T14:30:49.138Z,24.10
2018-09-02T14:33:17.239Z,24.10
2018-09-02T14:35:45.371Z,24.00
2018-09-02T14:38:13.593Z,23.80
2018-09-02T14:40:41.705Z,23.80
2018-09-02T14:43:09.824Z,23.80
2018-09-02T14:45:37.960Z,23.80
2018-09-02T14:48:06.227Z,23.70
2018-09-02T14:50:34.347Z,23.80
2018-09-02T14:53:02.496Z,23.90
2018-09-02T14:55:30.607Z,24.00
2018-09-02T14:57:58.703Z,24.00
2018-09-02T15:00:26.804Z,24.00
2018-09-02T15:02:54.903Z,24.10
2018-09-02T15:05:23.015Z,24.20
2018-09-02T15:07:51.104Z,24.20
2018-09-02T15:10:19.208Z,24.20
2018-09-02T15:12:47.304Z,24.20
2018-09-02T15:15:15.400Z,24.20
2018-09-02T15:17:43.479Z,24.10
2018-09-02T15:20:11.567Z,24.10
2018-09-02T15:22:39.638Z,24.00
2018-09-02T15:25:07.736Z,24.00
2018-09-02T15:27:35.841Z,24.00
2018-09-02T15:30:03.923Z,23.90
2018-09-02T15:32:32.004Z,23.90
2018-09-02T15:35:00.093Z,23.90
2018-09-02T15:37:28.205Z,23.90
2018-09-02T15:39:56.310Z,23.90
2018-09-02T15:42:24.396Z,23.90
2018-09-02T15:44:52.480Z,24.10
2018-09-02T15:47:20.559Z,24.10
2018-09-02T15:49:48.641Z,24.10
2018-09-02T15:52:16.759Z,24.10
2018-09-02T15:54:44.845Z,23.90
2018-09-02T15:57:12.939Z,23.80
2018-09-02T15:59:41.028Z,23.70
2018-09-02T16:02:09.113Z,23.60
2018-09-02T16:04:37.185Z,23.60
2018-09-02T16:07:05.271Z,23.50
2018-09-02T16:09:33.360Z,23.50
2018-09-02T16:12:01.442Z,23.40
2018-09-02T16:14:29.523Z,23.30
2018-09-02T16:16:57.614Z,23.20
2018-09-02T16:19:25.685Z,23.20
2018-09-02T16:21:53.781Z,23.10
2018-09-02T16:24:21.859Z,23.00
2018-09-02T16:26:50.177Z,23.10
2018-09-02T16:29:18.331Z,23.00
2018-09-02T16:31:46.386Z,23.00
2018-09-02T16:34:14.536Z,23.00
2018-09-02T16:36:42.593Z,22.80
2018-09-02T16:39:19.980Z,22.80
2018-09-02T16:41:48.093Z,22.60
2018-09-02T16:44:16.180Z,22.50
2018-09-02T16:46:44.937Z,22.50
2018-09-02T16:49:13.015Z,22.40
2018-09-02T16:51:41.110Z,22.30
2018-09-02T16:54:09.390Z,22.20
2018-09-02T16:56:37.508Z,22.10
2018-09-02T16:59:05.657Z,22.10
2018-09-02T17:01:33.783Z,22.10
2018-09-02T17:04:04.692Z,22.10
2018-09-02T17:06:32.832Z,22.10
2018-09-02T17:09:00.966Z,22.10
2018-09-02T17:11:29.111Z,22.00
2018-09-02T17:13:57.398Z,22.00
2018-09-02T17:16:25.540Z,21.80
2018-09-02T17:18:56.940Z,21.70
2018-09-02T17:21:25.112Z,21.60
2018-09-02T17:23:53.224Z,21.50
2018-09-02T17:26:21.350Z,21.50
2018-09-02T17:28:49.460Z,21.50
2018-09-02T17:31:17.583Z,21.40
2018-09-02T17:33:45.698Z,21.30
2018-09-02T17:36:13.844Z,21.30
2018-09-02T17:38:42.000Z,21.20
2018-09-02T17:41:10.216Z,21.20
2018-09-02T17:43:38.614Z,21.10
2018-09-02T17:46:06.846Z,21.10
2018-09-02T17:48:34.963Z,21.10
2018-09-02T17:51:03.110Z,21.10
2018-09-02T17:53:32.052Z,20.90
2018-09-02T17:56:00.242Z,20.70
2018-09-02T17:58:28.338Z,20.50
2018-09-02T18:00:57.609Z,20.40
2018-09-02T18:03:25.717Z,20.30
2018-09-02T18:05:53.827Z,20.40
2018-09-02T18:08:22.076Z,20.40
2018-09-02T18:10:50.053Z,20.40
2018-09-02T18:13:18.404Z,20.40
2018-09-02T18:15:46.505Z,20.40
2018-09-02T18:18:14.624Z,20.40
2018-09-02T18:20:42.712Z,20.40
2018-09-02T18:23:10.816Z,20.40
2018-09-02T18:25:38.924Z,20.40
2018-09-02T18:28:09.380Z,20.40
2018-09-02T18:30:37.476Z,20.40
2018-09-02T18:33:05.615Z,20.30
2018-09-02T18:35:33.697Z,20.30
2018-09-02T18:38:01.786Z,20.30
2018-09-02T18:40:29.958Z,20.30
2018-09-02T18:42:58.071Z,20.30
2018-09-02T18:45:26.269Z,20.20
2018-09-02T18:47:54.364Z,20.20
2018-09-02T18:50:22.447Z,20.10
2018-09-02T18:52:50.591Z,20.10
2018-09-02T18:55:18.672Z,20.20
2018-09-02T18:57:46.779Z,20.10
2018-09-02T19:00:14.886Z,20.10
2018-09-02T19:02:43.103Z,20.10
2018-09-02T19:05:11.212Z,20.00
2018-09-02T19:07:39.388Z,20.00
2018-09-02T19:10:07.503Z,19.90
2018-09-02T19:12:35.623Z,19.90
2018-09-02T19:15:03.726Z,19.80
2018-09-02T19:17:31.830Z,19.80
2018-09-02T19:19:59.947Z,19.80
2018-09-02T19:22:28.077Z,19.80
2018-09-02T19:24:56.186Z,19.80
2018-09-02T19:27:24.315Z,19.80
2018-09-02T19:29:52.428Z,19.80
2018-09-02T19:32:20.544Z,19.80
2018-09-02T19:34:48.683Z,19.70
2018-09-02T19:37:16.785Z,19.80
2018-09-02T19:39:44.896Z,19.70
2018-09-02T19:42:13.117Z,19.70
2018-09-02T19:44:41.241Z,19.60
2018-09-02T19:47:09.361Z,19.60
2018-09-02T19:49:37.465Z,19.70
2018-09-02T19:52:05.641Z,19.70
2018-09-02T19:54:33.771Z,19.70
2018-09-02T19:57:01.891Z,19.70
2018-09-02T19:59:30.120Z,19.70
2018-09-02T20:01:58.345Z,19.60
2018-09-02T20:04:26.463Z,19.60
2018-09-02T20:06:54.585Z,19.60
2018-09-02T20:09:22.712Z,19.50
2018-09-02T20:11:50.876Z,19.50
2018-09-02T20:14:19.083Z,19.50
2018-09-02T20:16:47.220Z,19.50
2018-09-02T20:19:15.344Z,19.50
2018-09-02T20:21:43.523Z,19.50
2018-09-02T20:24:11.695Z,19.40
2018-09-02T20:26:39.815Z,19.40
2018-09-02T20:29:08.060Z,19.50
2018-09-02T20:31:36.171Z,19.50
2018-09-02T20:34:04.332Z,19.40
2018-09-02T20:36:32.576Z,19.40
2018-09-02T20:39:00.706Z,19.30
2018-09-02T20:41:28.837Z,19.30
2018-09-02T20:45:00.455Z,19.30
2018-09-02T20:47:28.583Z,19.20
2018-09-02T20:49:56.725Z,19.20
2018-09-02T20:52:24.840Z,19.20
2018-09-02T20:54:52.960Z,19.20
2018-09-02T20:57:21.070Z,19.20
2018-09-02T20:59:49.165Z,19.10
2018-09-02T21:02:17.286Z,19.10
2018-09-02T21:04:45.373Z,19.10
2018-09-02T21:07:13.461Z,19.10
2018-09-02T21:09:41.572Z,19.00
2018-09-02T21:12:09.655Z,19.00
2018-09-02T21:14:37.771Z,18.90
2018-09-02T21:17:06.065Z,18.90
2018-09-02T21:19:34.112Z,18.90
2018-09-02T21:22:02.191Z,18.80
2018-09-02T21:24:30.292Z,18.80
2018-09-02T21:26:58.409Z,18.80
2018-09-02T21:29:26.591Z,18.70
2018-09-02T21:31:54.660Z,18.70
2018-09-02T21:34:22.760Z,18.70
2018-09-02T21:36:50.840Z,18.70
2018-09-02T21:39:18.940Z,18.60
2018-09-02T21:41:47.010Z,18.70
2018-09-02T21:44:15.117Z,18.70
2018-09-02T21:46:43.204Z,18.80
2018-09-02T21:49:11.301Z,18.80
2018-09-02T21:51:39.378Z,18.80
2018-09-02T21:54:07.475Z,18.70
2018-09-02T21:56:35.559Z,18.70
2018-09-02T21:59:03.712Z,18.70
2018-09-02T22:01:31.815Z,18.70
2018-09-02T22:03:59.932Z,18.60
2018-09-02T22:06:28.039Z,18.60
2018-09-02T22:08:56.151Z,18.60
2018-09-02T22:11:24.272Z,18.60
2018-09-02T22:13:52.402Z,18.60
2018-09-02T22:16:20.506Z,18.70
2018-09-02T22:18:48.619Z,18.70
2018-09-02T22:21:16.727Z,18.80
2018-09-02T22:23:44.843Z,18.80
2018-09-02T22:26:12.955Z,18.80
2018-09-02T22:28:41.066Z,18.80
2018-09-02T22:31:09.181Z,18.70
2018-09-02T22:33:37.304Z,18.80
2018-09-02T22:36:05.547Z,18.80
2018-09-02T22:38:33.655Z,18.80
2018-09-02T22:41:01.771Z,18.70
2018-09-02T22:43:29.883Z,18.70
2018-09-02T22:45:58.004Z,18.70
2018-09-02T22:48:26.110Z,18.60
2018-09-02T22:50:54.235Z,18.60
2018-09-02T22:53:22.356Z,18.60
2018-09-02T22:55:50.467Z,18.70
2018-09-02T22:58:18.587Z,18.70
2018-09-02T23:00:46.710Z,18.70
2018-09-02T23:03:14.801Z,18.70
2018-09-02T23:05:42.909Z,18.60
2018-09-02T23:08:11.028Z,18.60
2018-09-02T23:10:39.149Z,18.50
2018-09-02T23:13:07.254Z,18.50
2018-09-02T23:15:35.375Z,18.50
2018-09-02T23:18:03.473Z,18.40
2018-09-02T23:20:31.587Z,18.40
2018-09-02T23:22:59.747Z,18.40
2018-09-02T23:25:27.857Z,18.50
2018-09-02T23:27:55.970Z,18.50
2018-09-02T23:30:24.096Z,18.50
2018-09-02T23:32:52.208Z,18.40
2018-09-02T23:35:20.692Z,18.30
2018-09-02T23:37:48.811Z,18.40
2018-09-02T23:40:16.940Z,18.30
2018-09-02T23:42:45.046Z,18.30
2018-09-02T23:45:13.159Z,18.20
2018-09-02T23:47:41.278Z,18.20
2018-09-02T23:50:09.393Z,18.20
2018-09-02T23:52:37.490Z,18.20
2018-09-02T23:55:05.717Z,18.20
2018-09-02T23:57:33.827Z,18.10
